AirNav   Air Wisconsin Up To $57,000 Bonus
 
 370 users online  

28U Owyhee Reservoir State Airport
Owyhee, Oregon, USA

GOING TO OWYHEE?


FAA INFORMATION EFFECTIVE 15 JULY 2021

Location

FAA Identifier: 28U
Lat/Long: 43-25-29.4000N 117-20-44.4000W
43-25.490000N 117-20.740000W
43.4248333,-117.3456667
(estimated)
Elevation: 2680 ft. / 817 m (estimated)
Variation: 17E (1985)
From city: 25 miles SW of OWYHEE, OR
Time zone: UTC -7 (UTC -8 during Standard Time)
Zip code: 97901

Airport Operations

Airport use: Open to the public
Activation date: 10/1958
Control tower: no
ARTCC: SALT LAKE CITY CENTER
FSS: MC MINNVILLE FLIGHT SERVICE STATION
NOTAMs facility: MMV (NOTAM-D service available)
Attendance: UNATNDD
Wind indicator: yes
Segmented circle: no

Airport Communications

CTAF: 122.9

Airport Services

Parking: tiedowns
Airframe service: NONE
Powerplant service: NONE
Bottled oxygen: NONE
Bulk oxygen: NONE

Runway Information

Runway 13/31

Dimensions: 1840 x 30 ft. / 561 x 9 m
Surface: dirt, in fair condition
IRREGULAR MAINTENANCE. RUNWAY SURFACE FREQUENTLY ROUGH AND RUTTED
RUNWAY 13  RUNWAY 31
Latitude: 43-25.610248N43-25.370388N
Longitude: 117-20.866427W117-20.612518W
Elevation: 2678.0 ft.2678.0 ft.
Traffic pattern: leftleft
Runway heading: 125 magnetic, 142 true305 magnetic, 322 true

Airport Ownership and Management from official FAA records

Ownership: Publicly-owned
Owner: OREGON DEPT. OF AVIATION
3040 25TH ST, SE
SALEM, OR 97302-1125
Phone 503-378-4880
Manager: STATE AIRPORTS MANAGER
3040 25TH ST, SE
SALEM, OR 97302-1125
Phone 503-378-4880

Airport Operational Statistics

Aircraft operations: avg 46/month *
100% transient general aviation
* for 12-month period ending 23 September 2020

Additional Remarks

OWNER ADVISES CONTACT WITH STATE DEPT OF AVIATION 503-378-4880 PRIOR TO USE.
REMOTE AIRPORT; NO GROUND ACCESS.
AIRPORT IN CANYON; SURROUNDED BY HIGH TERRAIN.
4 FT BRUSH GROWTH WITHIN 20 FT OF RWY EDGE.
FOR CD CTC SALT LAKE ARTCC AT 801-320-2568.

Instrument Procedures

There are no published instrument procedures at 28U.

Some nearby airports with instrument procedures:

KEUL - Caldwell Industrial Airport (34 nm NE)
KMAN - Nampa Municipal Airport (37 nm E)
KONO - Ontario Municipal Airport (38 nm N)
KBOI - Boise Air Terminal/Gowen Field (50 nm E)
S87 - Weiser Municipal Airport (50 nm N)
 
Loc | Ops | Rwys | IFR | FBO | Links
Com | Nav | Svcs | Stats | Notes
Area around 28U (Owyhee Reservoir State Airport)
 
Road maps at: MapQuest Bing Google
 
Aerial photo
WARNING: Photo may not be current or correct
Aerial photo of 28U (Owyhee Reservoir State Airport)
Photo by Mark Andrews
Photo taken 05-Jul-2012
looking northwest.

Do you have a better or more recent aerial photo of Owyhee Reservoir State Airport that you would like to share? If so, please send us your photo.

 
Sectional chart

 
Airport distance calculator
Flying to Owyhee Reservoir State Airport? Find the distance to fly.

From to 28U

Sunrise and sunset
Times for 02-Aug-2021
 Local
(UTC-7)
 Zulu
(UTC)
Morning civil twilight05:0912:09
Sunrise05:4112:41
Sunset20:1003:10
Evening civil twilight20:4203:42

Current date and time
Zulu (UTC)  02-Aug-2021 09:08:39
Local (UTC-7)  02-Aug-2021 02:08:39
 
METAR
KEUL 
34nm E 
020856Z AUTO 03003KT 6SM BR CLR 21/19 A3014 RMK AO2 SLP187 T02060194 50004
KMAN 
37nm E 
020855Z AUTO 04003KT 7SM CLR 22/22 A3015 RMK A01
KONO 
38nm N 
020853Z AUTO 00000KT 3SM HZ CLR 23/20 A3014 RMK AO2 SLP189 T02330200 51004
KBOI 
49nm E 
020853Z 11004KT 10SM CLR 22/19 A3015 RMK AO2 SLP182 T02220189 58001
TAF
KEUL 
34nm E 
020520Z 0206/0306 VRB04KT P6SM BKN120 FM021700 32009KT P6SM FEW200 FM030300 VRB05KT P6SM FEW200
NOTAMs
Click for the latest NOTAMs
NOTAMs are issued by the DoD/FAA and will open in a separate window not controlled by AirNav.

 

 
 

Would you like to see your business listed on this page?

 If your business provides an interesting product or service to pilots, flight crews, aircraft, or users of the Owyhee Reservoir State Airport, you should consider listing it here.  To start the listing process, click on the button below
 
Add a business
 

Other Pages about Owyhee Reservoir State Airport

www.oregon.gov/...
 
Update a link
 
Copyright © AirNav, LLC. All rights reserved. Privacy Policy  Contact